Terminal Aerodrome Forecast
Issued by NWS

Home | Current Version | Previous Version | Text Only | Print | Product List | Glossary On
Versions: 1 2 3 4 5 6 7 8 9 10 11 12 13 14 15 16 17 18
938
FTUS41 KBGM 271120
TAFELM
TAF
KELM 271120Z 2712/2812 22005KT P6SM SCT040 BKN100
      TEMPO 2715/2718 BKN025 OVC050
     FM271800 28005KT P6SM BKN040 OVC080
     FM280000 VRB03KT P6SM BKN120
     FM280800 VRB03KT 3SM BR SCT004=

USA.gov is the U.S. government's official web portal to all federal, state and local government web resources and services.